Prairieville, Missouri
Current Conditions -  °F | °C
As of 6:15 AM on Saturday 25 Oct 2014 (Local Time) from KPPQ Reporting Station
Haze Haze  
Wind Chill: 58°   Ceiling: Unl
Heat Index: 58°   Visibility: 2.5mi
Dew Point: 56°   Wind: 3mph
Humidity: 93%   Direction: 290°WNW
Pressure: 30.02"   Gusts: NA
Location:  39.2534°N, 91.009°W
Report Text: KPPQ 251115Z AUTO 29003KT 2 1/2SM BR CLR 15/14 A3002 RMK AO2 T01470136
Loading
Personal Weather Stations






























Interactive Weather Map
Tropical Storm Tracking
New forecast layout! Learn more

10-Day Weather Forecast

Advertisements
Track Severe Weather on mobile